Time;durP1;ratioP1;P1;durP2;ratioP2;P2;SDS_P1;SDS_P2;PMS_P1;PMS_P2;Temp;Humidity;BMP_temperature;BMP_pressure;BME280_temperature;BME280_humidity;BME280_pressure;Samples;Min_cycle;Max_cycle;Signal;HPM_P1;HPM_P2
2022/11/18 00:03:43;;;;;;;31.02;17.70;;;;;;;0.34;100.00;97705.18;4095902;84;21125;-86
2022/11/18 00:09:44;;;;;;;33.23;17.30;;;;;;;0.34;100.00;97700.59;4116459;84;21018;-87
2022/11/18 00:16:02;;;;;;;32.48;17.85;;;;;;;0.35;100.00;97699.45;4120197;84;21438;-87
2022/11/18 00:22:07;;;;;;;31.07;17.62;;;;;;;0.34;100.00;97688.48;4088240;85;21026;-86
2022/11/18 00:28:08;;;;;;;30.05;16.73;;;;;;;0.32;100.00;97688.02;4122662;84;21062;-86
2022/11/18 00:34:16;;;;;;;30.02;17.75;;;;;;;0.34;100.00;97697.10;4124996;84;21985;-86
2022/11/18 00:40:32;;;;;;;32.10;16.70;;;;;;;0.36;100.00;97698.91;4131792;84;21526;-86
2022/11/18 00:46:48;;;;;;;36.30;19.00;;;;;;;0.37;100.00;97692.39;4124423;83;21012;-87
2022/11/18 00:52:50;;;;;;;29.98;15.95;;;;;;;0.37;100.00;97682.41;4058223;85;21087;-87
2022/11/18 00:58:51;;;;;;;30.50;16.75;;;;;;;0.40;100.00;97686.31;4042227;86;21557;-87
2022/11/18 01:04:52;;;;;;;30.35;16.60;;;;;;;0.39;100.00;97694.19;4123458;84;21121;-86
2022/11/18 01:13:17;;;;;;;29.67;18.02;;;;;;;0.35;100.00;97680.61;4179070;84;21034;-87
2022/11/18 01:17:04;;;;;;;29.60;16.10;;;;;;;0.33;100.00;97676.13;4119819;84;21021;-86
2022/11/18 01:23:05;;;;;;;24.75;15.23;;;;;;;0.34;100.00;97678.27;4114275;84;21494;-86
2022/11/18 01:29:26;;;;;;;23.60;14.68;;;;;;;0.30;100.00;97680.08;4123791;85;21605;-87
2022/11/18 01:35:29;;;;;;;24.20;14.50;;;;;;;0.28;100.00;97683.11;4123218;85;21065;-86
2022/11/18 01:41:38;;;;;;;24.40;14.35;;;;;;;0.27;100.00;97684.22;4144942;83;21040;-86
2022/11/18 01:48:01;;;;;;;25.55;14.10;;;;;;;0.28;100.00;97675.03;4086691;85;21102;-86
2022/11/18 01:54:10;;;;;;;22.50;13.58;;;;;;;0.29;100.00;97671.77;4062464;85;21038;-87
2022/11/18 02:00:13;;;;;;;27.13;14.38;;;;;;;0.27;100.00;97672.10;4083016;85;21123;-87
2022/11/18 02:06:16;;;;;;;24.75;13.90;;;;;;;0.27;100.00;97675.38;4098846;85;21028;-86
2022/11/18 02:12:20;;;;;;;28.75;14.30;;;;;;;0.28;100.00;97658.88;4086247;85;21555;-87
2022/11/18 02:19:03;;;;;;;27.07;15.00;;;;;;;0.26;100.00;97645.53;4084609;85;21512;-87
2022/11/18 02:25:40;;;;;;;25.27;13.83;;;;;;;0.24;100.00;97638.34;4143246;85;21031;-87
2022/11/18 02:38:48;;;;;;;22.93;13.95;;;;;;;0.16;100.00;97623.14;4080963;87;21009;-87
2022/11/18 02:45:09;;;;;;;24.40;13.03;;;;;;;0.13;100.00;97637.25;4081625;85;21009;-87
2022/11/18 02:51:12;;;;;;;25.90;14.23;;;;;;;0.11;100.00;97641.62;4101802;85;21868;-87
2022/11/18 02:57:15;;;;;;;26.48;15.48;;;;;;;0.05;100.00;97636.26;4120702;85;21697;-87
2022/11/18 03:03:29;;;;;;;25.32;14.15;;;;;;;0.01;100.00;97632.69;4063613;87;21040;-87
2022/11/18 03:09:41;;;;;;;27.85;15.00;;;;;;;0.00;100.00;97644.00;4081772;85;21094;-86
2022/11/18 03:16:15;;;;;;;29.40;15.45;;;;;;;-0.01;100.00;97636.27;4085401;85;21030;-87
2022/11/18 03:22:31;;;;;;;31.48;15.60;;;;;;;0.02;100.00;97624.06;4113920;85;21085;-86
2022/11/18 03:29:06;;;;;;;31.07;16.65;;;;;;;0.03;100.00;97628.31;4137979;85;20982;-87
2022/11/18 03:35:22;;;;;;;31.85;17.82;;;;;;;0.07;100.00;97623.26;4203419;82;142294;-86
2022/11/18 03:49:00;;;;;;;33.15;16.85;;;;;;;0.03;100.00;97625.63;4281601;81;21085;-86
2022/11/18 04:01:56;;;;;;;31.12;17.85;;;;;;;-0.04;100.00;97614.08;4111324;84;21027;-88
2022/11/18 04:08:19;;;;;;;32.08;16.97;;;;;;;-0.14;100.00;97612.64;4069701;85;21051;-87
2022/11/18 04:21:05;;;;;;;34.33;18.17;;;;;;;-0.32;100.00;97570.99;4179755;83;21023;-87
2022/11/18 04:27:08;;;;;;;38.90;17.92;;;;;;;-0.32;100.00;97570.99;4299085;80;21113;-87
2022/11/18 04:33:09;;;;;;;43.98;17.07;;;;;;;-0.22;100.00;97591.27;4190044;83;21191;-88
2022/11/18 04:46:08;;;;;;;35.05;16.77;;;;;;;-0.27;100.00;97582.08;4171455;82;21981;-87
2022/11/18 04:52:20;;;;;;;31.23;15.80;;;;;;;-0.28;100.00;97580.48;4264464;81;21062;-87
2022/11/18 04:58:22;;;;;;;29.90;15.58;;;;;;;-0.28;100.00;97592.04;4200482;83;21076;-90
2022/11/18 05:18:11;;;;;;;32.65;16.70;;;;;;;-0.32;100.00;97576.92;4266190;81;21055;-86
2022/11/18 05:24:30;;;;;;;38.02;19.00;;;;;;;-0.24;100.00;97589.47;4267552;81;21661;-86
2022/11/18 05:30:31;;;;;;;36.15;18.95;;;;;;;-0.21;100.00;97600.34;4194435;83;21077;-86
2022/11/18 05:36:33;;;;;;;28.15;15.53;;;;;;;-0.21;100.00;97606.27;4189528;82;21121;-86
2022/11/18 05:50:13;;;;;;;30.92;15.98;;;;;;;-0.21;100.00;97610.30;4076284;84;21031;-86
2022/11/18 05:56:39;;;;;;;26.93;15.13;;;;;;;-0.21;100.00;97617.02;4229603;82;21619;-86
2022/11/18 06:02:58;;;;;;;31.20;16.70;;;;;;;-0.19;100.00;97619.59;4292830;81;21006;-87
2022/11/18 06:09:22;;;;;;;28.87;15.70;;;;;;;-0.16;100.00;97626.22;4291025;80;21562;-85
2022/11/18 06:22:26;;;;;;;40.65;18.27;;;;;;;-0.22;100.00;97639.67;4270632;81;21235;-87
2022/11/18 06:28:30;;;;;;;31.97;17.70;;;;;;;-0.22;100.00;97639.67;4253653;81;21031;-87
2022/11/18 06:34:39;;;;;;;33.28;16.93;;;;;;;-0.20;100.00;97642.78;4181929;83;21646;-87
2022/11/18 06:41:00;;;;;;;33.45;18.25;;;;;;;-0.22;100.00;97648.50;4239298;81;21059;-87
2022/11/18 06:47:17;;;;;;;32.73;17.65;;;;;;;-0.41;100.00;97618.70;4200537;83;21069;-87
2022/11/18 06:53:43;;;;;;;27.22;15.65;;;;;;;-0.21;100.00;97657.36;4215564;82;21500;-86
2022/11/18 06:59:47;;;;;;;30.23;15.55;;;;;;;-0.21;100.00;97676.98;4150914;84;21958;-86
2022/11/18 07:06:18;;;;;;;32.33;17.15;;;;;;;-0.17;100.00;97687.28;4262910;82;20970;-87
2022/11/18 07:12:22;;;;;;;29.70;16.17;;;;;;;-0.17;100.00;97687.28;4193509;82;21848;-87
2022/11/18 07:24:55;;;;;;;32.80;17.87;;;;;;;-0.16;100.00;97677.31;4189472;83;21051;-87
2022/11/18 07:31:04;;;;;;;32.10;17.40;;;;;;;-0.09;100.00;97676.97;4302966;81;22030;-86
2022/11/18 07:43:55;;;;;;;30.62;17.37;;;;;;;-0.10;100.00;97657.14;4359868;80;21525;-86
2022/11/18 08:03:56;;;;;;;29.00;15.53;;;;;;;-0.19;100.00;97655.13;4110815;84;21001;-86
2022/11/18 08:09:58;;;;;;;35.30;17.95;;;;;;;-0.21;100.00;97654.13;4163299;84;21049;-86
2022/11/18 08:23:20;;;;;;;31.02;16.37;;;;;;;-0.09;100.00;97658.69;4172651;83;21077;-87
2022/11/18 08:29:26;;;;;;;26.50;15.43;;;;;;;-0.05;100.00;97668.44;4040746;86;21039;-87
2022/11/18 08:49:33;;;;;;;27.77;14.80;;;;;;;-0.02;100.00;97694.66;4088198;85;21018;-87
2022/11/18 08:55:38;;;;;;;26.57;15.13;;;;;;;-0.01;100.00;97687.39;4106088;84;21076;-87
2022/11/18 09:29:04;;;;;;;24.40;12.63;;;;;;;-0.07;100.00;97704.88;4272076;80;21067;-87
2022/11/18 09:35:05;;;;;;;20.35;11.73;;;;;;;-0.10;100.00;97706.34;4185823;83;21450;-88
2022/11/18 09:41:49;;;;;;;22.22;12.82;;;;;;;-0.06;100.00;97722.58;4239002;80;20997;-88
2022/11/18 09:55:20;;;;;;;28.27;15.23;;;;;;;0.09;100.00;97723.27;4324839;81;21117;-87
2022/11/18 10:01:24;;;;;;;25.17;13.83;;;;;;;0.17;100.00;97715.64;4307060;81;21527;-87
2022/11/18 10:08:24;;;;;;;24.50;13.70;;;;;;;0.19;100.00;97720.10;4355710;79;21034;-87
2022/11/18 10:28:38;;;;;;;31.87;16.35;;;;;;;0.22;100.00;97703.86;4337912;79;21051;-87
2022/11/18 10:55:32;;;;;;;33.38;17.05;;;;;;;0.27;100.00;97717.86;4200762;82;21641;-87
2022/11/18 11:01:33;;;;;;;33.70;16.62;;;;;;;0.25;100.00;97716.64;4346603;81;22190;-88
2022/11/18 11:14:53;;;;;;;34.23;15.45;;;;;;;0.09;100.00;97723.82;4242486;80;21078;-89
2022/11/18 11:20:55;;;;;;;30.00;15.85;;;;;;;-0.06;100.00;97722.03;4169985;83;21147;-87
2022/11/18 11:27:24;;;;;;;38.53;17.87;;;;;;;-0.09;100.00;97736.16;4258344;81;21083;-87
2022/11/18 11:33:38;;;;;;;46.40;22.10;;;;;;;-0.07;100.00;97736.61;4181681;83;21065;-88
2022/11/18 11:40:28;;;;;;;38.35;18.80;;;;;;;-0.03;100.00;97727.28;4212665;82;21104;-88
2022/11/18 11:53:19;;;;;;;30.30;16.32;;;;;;;0.06;100.00;97718.56;4212199;82;81125;-88
2022/11/18 11:59:39;;;;;;;35.60;17.85;;;;;;;0.03;100.00;97709.03;4070250;85;21115;-88
2022/11/18 12:05:41;;;;;;;40.12;20.35;;;;;;;-0.02;100.00;97699.28;4117789;84;21047;-89
2022/11/18 12:11:57;;;;;;;41.55;22.20;;;;;;;-0.20;100.00;97696.03;4262351;81;21009;-88
2022/11/18 12:18:13;;;;;;;44.85;23.25;;;;;;;-0.28;100.00;97722.46;4261522;82;20971;-87
2022/11/18 12:24:31;;;;;;;41.10;19.37;;;;;;;-0.30;100.00;97724.69;4243229;82;21072;-88
2022/11/18 12:30:32;;;;;;;49.03;24.18;;;;;;;-0.51;100.00;97728.04;4254246;82;21109;-87
2022/11/18 12:36:38;;;;;;;48.78;22.15;;;;;;;-0.57;100.00;97734.75;4243342;82;21051;-87
2022/11/18 12:49:29;;;;;;;49.33;23.02;;;;;;;-0.56;100.00;97744.92;4251794;82;21543;-88
2022/11/18 12:55:32;;;;;;;48.33;23.83;;;;;;;-0.60;100.00;97745.37;4250840;81;21054;-88
2022/11/18 13:01:34;;;;;;;55.78;23.50;;;;;;;-0.60;100.00;97744.03;4245356;82;21060;-88
2022/11/18 13:08:12;;;;;;;47.48;22.52;;;;;;;-0.60;100.00;97757.47;4265150;82;21026;-87
2022/11/18 13:23:50;;;;;;;47.67;22.07;;;;;;;-0.74;100.00;97759.12;4227081;82;21162;-87
2022/11/18 13:27:09;;;;;;;55.63;24.40;;;;;;;-0.82;100.00;97768.59;4240694;81;21132;-88
2022/11/18 13:33:11;;;;;;;57.37;25.73;;;;;;;-0.87;100.00;97784.91;4240452;82;21598;-88
2022/11/18 13:52:36;;;;;;;48.63;22.90;;;;;;;-0.88;100.00;97790.06;4266934;82;21682;-87
2022/11/18 13:59:00;;;;;;;47.73;22.35;;;;;;;-0.81;100.00;97797.81;4329214;81;21028;-86
2022/11/18 14:12:31;;;;;;;48.38;22.73;;;;;;;-0.88;100.00;97819.62;4242006;81;21657;-85
2022/11/18 14:32:26;;;;;;;45.92;22.15;;;;;;;-1.02;100.00;97827.95;4011669;86;21050;-87
2022/11/18 14:45:35;;;;;;;45.55;23.12;;;;;;;-1.03;100.00;97845.16;4043296;85;21069;-87
2022/11/18 14:51:38;;;;;;;46.58;23.57;;;;;;;-1.25;100.00;97808.45;4134740;81;21012;-87
2022/11/18 14:57:49;;;;;;;41.25;21.57;;;;;;;-1.15;100.00;97837.59;4294082;82;21043;-87
2022/11/18 15:04:04;;;;;;;47.60;22.62;;;;;;;-1.05;100.00;97858.70;4296835;81;21169;-87
2022/11/18 15:10:18;;;;;;;42.23;23.00;;;;;;;-1.04;100.00;97849.52;4256824;80;21023;-88
2022/11/18 15:36:18;;;;;;;47.58;21.37;;;;;;;-1.14;100.00;97864.11;4332882;80;22048;-87
2022/11/18 15:42:25;;;;;;;44.15;21.95;;;;;;;-1.14;100.00;97864.11;4266099;81;21684;-87
2022/11/18 15:48:27;;;;;;;39.35;21.45;;;;;;;-1.07;100.00;97878.38;4289927;81;21076;-87
2022/11/18 15:54:28;;;;;;;43.28;23.40;;;;;;;-1.07;100.00;97878.38;4266335;81;21027;-87
2022/11/18 16:00:29;;;;;;;42.88;21.20;;;;;;;-1.06;100.00;97890.13;4179206;83;21060;-87
2022/11/18 16:07:02;;;;;;;;;;;;;;;;;;;;;
2022/11/18 16:13:06;;;;;;;56.55;26.12;;;;;;;-1.02;100.00;97901.02;4250195;82;21111;-87
2022/11/18 16:19:36;;;;;;;35.35;18.07;;;;;;;-1.04;100.00;97920.15;4234502;82;21044;-87
2022/11/18 16:25:49;;;;;;;56.02;22.87;;;;;;;-1.14;100.00;97922.43;4238181;82;21583;-87
2022/11/18 16:31:55;;;;;;;30.23;16.80;;;;;;;-1.19;100.00;97919.34;4256065;82;21321;-86
2022/11/18 16:37:59;;;;;;;44.58;22.20;;;;;;;-1.22;100.00;97921.34;4263641;81;21052;-87
2022/11/18 16:44:22;;;;;;;45.25;21.75;;;;;;;-1.21;100.00;97927.51;4268843;82;21011;-87
2022/11/18 16:50:26;;;;;;;48.60;22.42;;;;;;;-1.20;100.00;97927.73;4197188;83;21092;-86
2022/11/18 16:56:44;;;;;;;49.10;24.07;;;;;;;-1.18;100.00;97941.08;4086968;84;21203;-86
2022/11/18 17:02:57;;;;;;;44.63;23.40;;;;;;;-1.15;100.00;97949.83;4207554;82;21029;-87
2022/11/18 17:08:59;;;;;;;46.63;24.43;;;;;;;-1.12;100.00;97938.44;4250223;82;20979;-86
2022/11/18 17:15:01;;;;;;;34.63;17.80;;;;;;;-1.15;100.00;97949.83;4238305;82;21005;-85
2022/11/18 17:21:16;;;;;;;39.98;18.55;;;;;;;-1.15;100.00;97949.83;4253470;82;21506;-85
2022/11/18 17:27:18;;;;;;;39.42;18.80;;;;;;;-1.18;100.00;97952.37;4260012;82;21086;-85
2022/11/18 17:33:20;;;;;;;58.65;24.37;;;;;;;-1.18;100.00;97955.85;4174797;83;20950;-85
2022/11/18 17:39:21;;;;;;;110.05;40.55;;;;;;;-1.13;100.00;97958.91;4267246;82;21022;-84
2022/11/18 17:45:23;;;;;;;92.62;37.35;;;;;;;-1.10;100.00;97968.45;4240835;82;21020;-85
2022/11/18 17:51:28;;;;;;;59.73;24.23;;;;;;;-1.09;100.00;97957.93;4124734;84;21032;-85
2022/11/18 17:57:30;;;;;;;49.80;22.07;;;;;;;-1.09;100.00;97957.93;4265143;81;21007;-84
2022/11/18 18:03:31;;;;;;;40.80;19.02;;;;;;;-0.99;100.00;97964.84;4117838;81;9999685;-84
2022/11/18 18:09:33;;;;;;;48.83;21.75;;;;;;;-0.89;100.00;97977.33;4275708;81;21077;-84
2022/11/18 18:15:35;;;;;;;41.33;21.68;;;;;;;-0.93;100.00;97968.36;4279282;81;22048;-84
2022/11/18 18:21:36;;;;;;;46.70;22.05;;;;;;;-0.87;100.00;97985.06;4275399;81;21614;-85
2022/11/18 18:27:41;;;;;;;45.15;20.30;;;;;;;-0.86;100.00;97990.69;4267196;81;21026;-84
2022/11/18 18:33:42;;;;;;;46.28;22.42;;;;;;;-0.82;100.00;97999.12;4263652;81;21007;-84
2022/11/18 18:39:44;;;;;;;63.65;28.77;;;;;;;-0.80;100.00;98002.82;4266664;81;20999;-84
2022/11/18 18:52:07;;;;;;;55.90;24.43;;;;;;;-0.87;100.00;97999.84;4269769;81;21037;-84
2022/11/18 18:58:08;;;;;;;57.85;24.87;;;;;;;-0.89;100.00;98000.75;4267729;81;21054;-84
2022/11/18 19:04:12;;;;;;;36.98;19.20;;;;;;;-0.83;100.00;98017.67;4175230;81;9999863;-84
2022/11/18 19:10:13;;;;;;;41.77;20.88;;;;;;;-0.87;100.00;98027.51;4277961;81;21001;-84
2022/11/18 19:16:14;;;;;;;44.27;20.62;;;;;;;-0.94;100.00;98027.21;4278608;81;21016;-85
2022/11/18 19:22:16;;;;;;;45.50;20.92;;;;;;;-0.97;100.00;98034.58;4258214;81;20969;-84
2022/11/18 19:28:17;;;;;;;52.33;22.55;;;;;;;-1.10;100.00;98023.52;4276982;81;20999;-83
2022/11/18 19:34:18;;;;;;;46.10;21.33;;;;;;;-0.99;100.00;98031.98;4268979;81;21004;-84
2022/11/18 19:40:19;;;;;;;44.85;19.75;;;;;;;-0.98;100.00;98038.92;4273128;81;20980;-83
2022/11/18 19:46:20;;;;;;;41.55;19.12;;;;;;;-1.02;100.00;98045.52;4286238;81;21039;-83
2022/11/18 19:52:22;;;;;;;32.58;16.57;;;;;;;-1.04;100.00;98041.56;4300054;81;22108;-83
2022/11/18 19:58:24;;;;;;;30.35;16.75;;;;;;;-1.11;100.00;98044.75;4275232;81;21448;-83
2022/11/18 20:04:25;;;;;;;36.55;17.50;;;;;;;-1.16;100.00;98056.23;4284536;81;20987;-83
2022/11/18 20:10:26;;;;;;;34.80;16.48;;;;;;;-1.19;100.00;98046.14;4270847;81;20973;-83
2022/11/18 20:16:28;;;;;;;35.23;16.57;;;;;;;-1.19;100.00;98046.14;4258577;81;21395;-82
2022/11/18 20:22:29;;;;;;;35.05;17.60;;;;;;;-1.27;100.00;98049.63;4269263;81;21019;-82
2022/11/18 20:28:33;;;;;;;32.53;16.20;;;;;;;-1.27;100.00;98049.63;4283247;81;21054;-83
2022/11/18 20:34:35;;;;;;;34.33;15.90;;;;;;;-1.27;100.00;98063.86;4261333;81;21010;-82
2022/11/18 20:40:37;;;;;;;31.95;16.05;;;;;;;-1.23;100.00;98062.64;4280658;81;21676;-82
2022/11/18 20:46:38;;;;;;;31.37;15.23;;;;;;;-1.19;100.00;98060.33;4283619;81;20988;-83
2022/11/18 20:52:39;;;;;;;34.63;16.70;;;;;;;-1.25;100.00;98075.62;4265009;81;21599;-82
2022/11/18 20:58:40;;;;;;;35.15;17.15;;;;;;;-1.28;100.00;98087.00;4286063;81;21031;-82
2022/11/18 21:04:41;;;;;;;30.60;15.83;;;;;;;-1.28;100.00;98087.00;4149672;81;10000284;-82
2022/11/18 21:10:43;;;;;;;32.40;14.83;;;;;;;-1.28;100.00;98113.85;4261634;81;21683;-83
2022/11/18 21:16:45;;;;;;;27.42;14.13;;;;;;;-1.36;100.00;98102.00;4266126;81;21062;-81
2022/11/18 21:22:46;;;;;;;32.67;14.60;;;;;;;-1.53;100.00;98090.52;4257490;81;21034;-81
2022/11/18 21:28:49;;;;;;;76.47;25.85;;;;;;;-1.53;100.00;98090.52;4265576;81;20997;-81
2022/11/18 21:34:50;;;;;;;63.85;23.22;;;;;;;-1.40;100.00;98101.06;4273191;81;21138;-81
2022/11/18 21:40:51;;;;;;;37.40;16.17;;;;;;;-1.34;100.00;98111.88;4262412;81;21050;-81
2022/11/18 21:46:52;;;;;;;34.05;17.37;;;;;;;-1.30;100.00;98121.42;4262487;81;21586;-81
2022/11/18 21:52:53;;;;;;;45.55;18.77;;;;;;;-1.24;100.00;98128.20;4278542;81;21073;-81
2022/11/18 21:58:57;;;;;;;35.58;16.57;;;;;;;-1.18;100.00;98128.27;4274815;81;21072;-81
2022/11/18 22:05:05;;;;;;;37.20;16.57;;;;;;;-1.14;100.00;98138.63;4281387;81;21675;-81
2022/11/18 22:11:03;;;;;;;27.05;13.78;;;;;;;-1.16;100.00;98130.85;4263206;82;21114;-81
2022/11/18 22:17:04;;;;;;;25.45;12.50;;;;;;;-1.17;100.00;98145.41;4261366;81;21623;-82
2022/11/18 22:23:06;;;;;;;26.33;12.73;;;;;;;-1.26;100.00;98163.43;4304239;81;21059;-82
2022/11/18 22:29:07;;;;;;;26.68;13.68;;;;;;;-1.30;100.00;98154.98;4205294;83;21439;-81
2022/11/18 22:35:08;;;;;;;25.95;13.30;;;;;;;-1.27;100.00;98162.41;4269236;81;21033;-81
2022/11/18 22:47:36;;;;;;;28.95;13.28;;;;;;;-1.33;100.00;98178.45;4265832;82;21515;-81
2022/11/18 22:53:38;;;;;;;34.73;15.00;;;;;;;-1.44;100.00;98183.33;4252899;82;21028;-81
2022/11/18 22:59:39;;;;;;;22.53;12.30;;;;;;;-1.44;100.00;98183.33;4236729;82;21513;-81
2022/11/18 23:05:45;;;;;;;24.52;13.25;;;;;;;-1.40;100.00;98188.86;4266825;81;21093;-82
2022/11/18 23:18:06;;;;;;;23.02;11.30;;;;;;;-1.39;100.00;98185.09;4275251;81;21035;-81
2022/11/18 23:24:12;;;;;;;26.48;13.50;;;;;;;-1.38;100.00;98197.39;4209457;83;21603;-81
2022/11/18 23:30:13;;;;;;;24.50;12.03;;;;;;;-1.37;100.00;98200.30;4270966;81;21072;-81
2022/11/18 23:36:17;;;;;;;27.93;13.03;;;;;;;-1.40;100.00;98205.77;4283780;81;21499;-81
2022/11/18 23:42:18;;;;;;;26.57;12.37;;;;;;;-1.38;100.00;98199.54;4301648;81;21078;-81
2022/11/18 23:48:21;;;;;;;24.95;12.18;;;;;;;-1.35;100.00;98226.30;4194514;83;21033;-81
2022/11/18 23:54:22;;;;;;;39.58;15.08;;;;;;;-1.34;100.00;98226.52;4261115;81;21991;-81
